Time;durP1;ratioP1;P1;durP2;ratioP2;P2;SDS_P1;SDS_P2;PMS_P1;PMS_P2;Temp;Humidity;BMP_temperature;BMP_pressure;BME280_temperature;BME280_humidity;BME280_pressure;Samples;Min_cycle;Max_cycle;Signal;HPM_P1;HPM_P2
2021/11/28 00:00:44;;;;;;;0.20;0.10;;;6.10;99.90;;;;;;20736462;28;20588;-71
2021/11/28 00:11:00;;;;;;;0.20;0.10;;;6.80;99.90;;;;;;20735485;28;20222;-69
2021/11/28 00:21:05;;;;;;;0.20;0.10;;;6.70;99.90;;;;;;20734726;28;20651;-71
2021/11/28 00:31:08;;;;;;;0.20;0.10;;;6.60;99.90;;;;;;20734972;28;20271;-71
2021/11/28 00:41:13;;;;;;;0.20;0.10;;;6.50;99.90;;;;;;20735213;28;20611;-70
2021/11/28 00:51:34;;;;;;;0.20;0.10;;;6.60;99.90;;;;;;20735222;28;20606;-70
2021/11/28 01:01:40;;;;;;;0.20;0.10;;;6.50;99.90;;;;;;20735557;28;20241;-69
2021/11/28 01:11:45;;;;;;;0.20;0.10;;;6.50;99.90;;;;;;20733353;28;20265;-69
2021/11/28 01:21:55;;;;;;;0.20;0.10;;;6.20;99.90;;;;;;20735900;28;20233;-69
2021/11/28 01:31:58;;;;;;;0.20;0.10;;;5.90;99.90;;;;;;20747469;28;20198;-71
2021/11/28 01:42:05;;;;;;;0.20;0.10;;;5.70;99.90;;;;;;20747091;28;20677;-69
2021/11/28 01:52:08;;;;;;;0.20;0.10;;;5.80;99.90;;;;;;20746586;28;20286;-70
2021/11/28 02:02:13;;;;;;;0.20;0.10;;;5.50;99.90;;;;;;20744479;28;20252;-70
2021/11/28 02:12:18;;;;;;;0.20;0.10;;;5.50;99.90;;;;;;20743988;28;20657;-70
2021/11/28 02:22:23;;;;;;;0.20;0.10;;;5.50;99.90;;;;;;20743359;28;20222;-71
2021/11/28 02:32:27;;;;;;;0.20;0.10;;;5.70;99.90;;;;;;20741699;28;20220;-71
2021/11/28 02:42:31;;;;;;;0.20;0.13;;;5.70;99.90;;;;;;20742082;28;20584;-72
2021/11/28 02:52:36;;;;;;;0.20;0.10;;;5.70;99.90;;;;;;20742003;28;20194;-70
2021/11/28 03:02:41;;;;;;;0.20;0.10;;;5.50;99.90;;;;;;20741235;28;20237;-69
2021/11/28 03:12:45;;;;;;;0.20;0.10;;;5.60;99.90;;;;;;20740156;28;20604;-70
2021/11/28 03:22:53;;;;;;;0.20;0.10;;;5.70;99.90;;;;;;20738935;28;20249;-69
2021/11/28 03:32:56;;;;;;;0.20;0.10;;;5.80;99.90;;;;;;20737768;28;20317;-69
2021/11/28 03:43:02;;;;;;;0.20;0.10;;;5.80;99.90;;;;;;20738039;28;20222;-69
2021/11/28 03:53:06;;;;;;;0.20;0.10;;;5.70;99.90;;;;;;20737512;28;20653;-68
2021/11/28 04:03:12;;;;;;;0.20;0.10;;;5.50;99.90;;;;;;20736896;28;20235;-69
2021/11/28 04:13:16;;;;;;;0.20;0.10;;;5.50;99.90;;;;;;20737095;28;20597;-69
2021/11/28 04:23:21;;;;;;;0.20;0.10;;;5.80;99.90;;;;;;20736545;28;20301;-69
2021/11/28 04:33:24;;;;;;;0.20;0.10;;;5.70;99.90;;;;;;20735736;28;20202;-69
2021/11/28 04:43:29;;;;;;;0.20;0.10;;;5.60;99.90;;;;;;20735438;28;20579;-69
2021/11/28 04:53:33;;;;;;;0.20;0.10;;;5.40;99.90;;;;;;20734439;28;20253;-69
2021/11/28 05:03:38;;;;;;;0.20;0.10;;;5.50;99.90;;;;;;20750661;28;20270;-71
2021/11/28 05:13:42;;;;;;;0.20;0.10;;;5.30;99.90;;;;;;20747607;28;20541;-74
2021/11/28 05:23:47;;;;;;;0.20;0.10;;;5.40;99.90;;;;;;20749161;28;20280;-73
2021/11/28 05:33:51;;;;;;;0.20;0.10;;;5.30;99.90;;;;;;20747201;28;20195;-73
2021/11/28 05:43:57;;;;;;;0.20;0.10;;;5.40;99.90;;;;;;20745693;28;20233;-72
2021/11/28 05:54:01;;;;;;;0.20;0.10;;;5.60;99.90;;;;;;20747245;28;20207;-73
2021/11/28 06:04:06;;;;;;;0.20;0.10;;;5.80;99.90;;;;;;20745417;28;20234;-71
2021/11/28 06:14:09;;;;;;;0.20;0.10;;;5.80;99.90;;;;;;20760539;28;20353;-71
2021/11/28 06:24:15;;;;;;;0.20;0.10;;;5.50;99.90;;;;;;20742408;28;20222;-70
2021/11/28 06:34:18;;;;;;;0.20;0.10;;;5.50;99.90;;;;;;20743372;28;20704;-70
2021/11/28 06:44:23;;;;;;;0.20;0.10;;;5.70;99.90;;;;;;20742687;28;20226;-71
2021/11/28 06:54:27;;;;;;;0.20;0.10;;;5.70;99.90;;;;;;20742487;28;20206;-72
2021/11/28 07:04:32;;;;;;;0.20;0.10;;;5.80;99.90;;;;;;20739753;28;20270;-72
2021/11/28 07:14:35;;;;;;;0.20;0.10;;;5.80;99.90;;;;;;20740611;28;20563;-71
2021/11/28 07:24:40;;;;;;;0.20;0.10;;;5.70;99.90;;;;;;20739310;28;20306;-71
2021/11/28 07:34:44;;;;;;;0.20;0.20;;;5.80;99.90;;;;;;20739187;28;20736;-69
2021/11/28 07:44:50;;;;;;;0.20;0.10;;;6.20;99.90;;;;;;20737780;28;20288;-71
2021/11/28 07:54:54;;;;;;;0.20;0.10;;;6.50;99.90;;;;;;20736322;28;20229;-72
2021/11/28 08:04:58;;;;;;;0.20;0.10;;;6.60;99.90;;;;;;20734804;28;20794;-71
2021/11/28 08:15:02;;;;;;;0.20;0.10;;;6.90;99.90;;;;;;20735468;28;20226;-72
2021/11/28 08:25:11;;;;;;;0.20;0.10;;;7.50;99.90;;;;;;20735658;28;20254;-71
2021/11/28 08:35:14;;;;;;;0.20;0.10;;;7.60;99.90;;;;;;20743737;28;20198;-73
2021/11/28 08:45:20;;;;;;;0.20;0.10;;;7.60;99.90;;;;;;20750907;28;20219;-72
2021/11/28 08:55:24;;;;;;;0.20;0.10;;;7.80;99.90;;;;;;20751283;28;20205;-72
2021/11/28 09:05:29;;;;;;;0.20;0.10;;;7.80;99.90;;;;;;20748424;28;20567;-73
2021/11/28 09:15:33;;;;;;;0.20;0.10;;;8.00;99.90;;;;;;20747850;28;20237;-73
2021/11/28 09:25:56;;;;;;;0.20;0.10;;;7.90;99.90;;;;;;20747071;28;20226;-73
2021/11/28 09:35:59;;;;;;;0.20;0.10;;;7.90;99.90;;;;;;20746807;28;20291;-72
2021/11/28 09:46:06;;;;;;;0.20;0.10;;;7.80;99.90;;;;;;20743598;28;20222;-74
2021/11/28 09:56:12;;;;;;;0.20;0.20;;;7.90;99.90;;;;;;20718388;28;20555;-71
2021/11/28 10:06:18;;;;;;;0.20;0.10;;;8.40;99.90;;;;;;20740262;28;20633;-72
2021/11/28 10:16:22;;;;;;;0.20;0.10;;;8.80;99.90;;;;;;20743220;28;20277;-70
2021/11/28 10:26:27;;;;;;;0.20;0.10;;;9.20;99.90;;;;;;20742303;28;20285;-71
2021/11/28 10:36:31;;;;;;;0.70;0.57;;;9.80;99.90;;;;;;20739800;28;20213;-70
2021/11/28 10:46:36;;;;;;;0.20;0.10;;;10.10;99.90;;;;;;20740410;28;20561;-72
2021/11/28 10:56:40;;;;;;;0.20;0.10;;;10.20;99.90;;;;;;20752867;28;20590;-71
2021/11/28 11:06:46;;;;;;;0.20;0.10;;;10.10;99.90;;;;;;20752823;28;20231;-71
2021/11/28 11:16:52;;;;;;;0.20;0.10;;;10.20;99.90;;;;;;20752604;28;20209;-71
2021/11/28 11:27:05;;;;;;;0.20;0.20;;;10.10;99.90;;;;;;20735159;28;20317;-75
2021/11/28 11:37:13;;;;;;;0.20;0.10;;;10.30;99.90;;;;;;20731881;28;20191;-71
2021/11/28 11:47:19;;;;;;;0.20;0.10;;;10.00;99.90;;;;;;20746277;28;20236;-68
2021/11/28 11:57:25;;;;;;;0.20;0.10;;;10.40;99.90;;;;;;20682382;28;20286;-72
2021/11/28 12:07:49;;;;;;;0.20;0.10;;;10.80;99.90;;;;;;20669618;28;20592;-72
2021/11/28 12:17:54;;;;;;;0.20;0.10;;;11.60;99.90;;;;;;20677652;28;20203;-72
2021/11/28 12:28:26;;;;;;;0.20;0.07;;;11.80;99.90;;;;;;20646630;28;20238;-71
2021/11/28 12:38:50;;;;;;;0.20;0.10;;;11.00;99.90;;;;;;20647834;28;20878;-72
2021/11/28 12:49:33;;;;;;;0.20;0.10;;;10.90;99.90;;;;;;20648285;28;20216;-72
2021/11/28 13:00:27;;;;;;;0.20;0.10;;;10.90;99.90;;;;;;20648156;28;20669;-73
2021/11/28 13:10:34;;;;;;;0.20;0.10;;;11.00;99.90;;;;;;20669525;28;20253;-75
2021/11/28 13:20:40;;;;;;;0.20;0.10;;;11.10;99.90;;;;;;20737312;28;20281;-71
2021/11/28 13:30:48;;;;;;;0.20;0.10;;;10.90;99.90;;;;;;20741191;28;20222;-74
2021/11/28 13:41:10;;;;;;;0.20;0.10;;;11.40;99.90;;;;;;20744233;28;20289;-73
2021/11/28 13:51:32;;;;;;;0.20;0.10;;;13.00;99.90;;;;;;20742481;28;20232;-73
2021/11/28 14:01:35;;;;;;;0.20;0.10;;;12.80;99.90;;;;;;20741189;28;20230;-71
2021/11/28 14:11:42;;;;;;;0.20;0.00;;;12.60;99.90;;;;;;20739639;28;20588;-73
2021/11/28 14:21:46;;;;;;;0.20;0.10;;;13.40;99.90;;;;;;20738783;28;20261;-71
2021/11/28 14:32:11;;;;;;;0.20;0.10;;;14.70;99.90;;;;;;20739253;28;20238;-72
2021/11/28 14:42:17;;;;;;;0.20;0.10;;;11.90;99.90;;;;;;20738711;28;20281;-72
2021/11/28 14:52:37;;;;;;;0.20;0.10;;;12.10;99.90;;;;;;20738157;28;20755;-71
2021/11/28 15:02:40;;;;;;;0.20;0.10;;;12.70;99.90;;;;;;20736751;28;20230;-71
2021/11/28 15:12:46;;;;;;;0.20;0.10;;;12.90;99.90;;;;;;20736632;28;20237;-71
2021/11/28 15:22:52;;;;;;;0.20;0.10;;;13.10;99.90;;;;;;20736038;28;20254;-70
2021/11/28 15:32:57;;;;;;;0.20;0.10;;;12.90;99.90;;;;;;20735059;28;20718;-70
2021/11/28 15:43:05;;;;;;;0.20;0.10;;;11.20;99.90;;;;;;20734222;28;20203;-72
2021/11/28 15:53:10;;;;;;;0.20;0.10;;;11.00;99.90;;;;;;20711191;28;20314;-73
2021/11/28 16:03:16;;;;;;;0.20;0.10;;;10.50;99.90;;;;;;20650536;28;20231;-66
2021/11/28 16:13:21;;;;;;;0.20;0.10;;;10.20;99.90;;;;;;20671318;28;20237;-70
2021/11/28 16:23:25;;;;;;;0.20;0.10;;;9.80;99.90;;;;;;20729240;28;20559;-72
2021/11/28 16:33:31;;;;;;;0.20;0.10;;;9.70;99.90;;;;;;20731608;28;20258;-71
2021/11/28 16:43:34;;;;;;;0.20;0.10;;;9.50;99.90;;;;;;20730540;28;20282;-70
2021/11/28 16:53:39;;;;;;;0.20;0.10;;;9.20;99.90;;;;;;20736090;28;20228;-70
2021/11/28 17:03:43;;;;;;;0.20;0.10;;;9.00;99.90;;;;;;20745264;28;20230;-70
2021/11/28 17:13:49;;;;;;;0.20;0.10;;;8.80;99.90;;;;;;20743865;28;20222;-69
2021/11/28 17:23:53;;;;;;;0.20;0.10;;;8.60;99.90;;;;;;20745607;28;20562;-71
2021/11/28 17:33:59;;;;;;;0.20;0.10;;;8.50;99.90;;;;;;20744208;28;20229;-72
2021/11/28 17:44:04;;;;;;;0.20;0.10;;;8.40;99.90;;;;;;20736345;28;20218;-72
2021/11/28 17:54:09;;;;;;;0.20;0.10;;;8.20;99.90;;;;;;20743562;28;20322;-71
2021/11/28 18:04:13;;;;;;;0.20;0.10;;;8.20;99.90;;;;;;20741196;28;20441;-70
2021/11/28 18:14:18;;;;;;;0.20;0.20;;;8.10;99.90;;;;;;20693812;28;20647;-70
2021/11/28 18:24:23;;;;;;;0.20;0.10;;;8.00;99.90;;;;;;20660627;28;20540;-74
2021/11/28 18:34:28;;;;;;;0.20;0.10;;;7.80;99.90;;;;;;20668788;28;20227;-71
2021/11/28 18:44:32;;;;;;;0.20;0.10;;;7.60;99.90;;;;;;20738718;28;20207;-70
2021/11/28 18:54:37;;;;;;;0.20;0.10;;;7.40;99.90;;;;;;20737649;28;20278;-69
2021/11/28 19:04:41;;;;;;;0.20;0.10;;;7.50;99.90;;;;;;20729369;28;20302;-70
2021/11/28 19:14:47;;;;;;;0.20;0.10;;;7.40;99.90;;;;;;20735195;28;20191;-70
2021/11/28 19:24:50;;;;;;;0.20;0.10;;;7.50;99.90;;;;;;20734456;28;20209;-70
2021/11/28 19:34:55;;;;;;;0.20;0.10;;;7.40;99.90;;;;;;20734128;28;20557;-70
2021/11/28 19:45:15;;;;;;;0.20;0.10;;;7.50;99.90;;;;;;20725546;28;20210;-71
2021/11/28 19:55:20;;;;;;;0.20;0.10;;;7.40;99.90;;;;;;20733673;28;20281;-70
2021/11/28 20:05:28;;;;;;;0.20;0.10;;;7.30;99.90;;;;;;20733264;28;20722;-73
2021/11/28 20:15:34;;;;;;;0.20;0.10;;;7.10;99.90;;;;;;20732683;28;20611;-72
2021/11/28 20:25:39;;;;;;;0.20;0.10;;;6.90;99.90;;;;;;20737136;28;20649;-71
2021/11/28 20:35:44;;;;;;;0.20;0.10;;;6.70;99.90;;;;;;20752734;28;20190;-72
2021/11/28 20:45:48;;;;;;;0.20;0.10;;;6.60;99.90;;;;;;20758762;28;20218;-70
2021/11/28 20:55:54;;;;;;;0.20;0.10;;;6.60;99.90;;;;;;20758888;28;20222;-71
2021/11/28 21:06:00;;;;;;;0.20;0.10;;;6.50;99.90;;;;;;20758420;28;20296;-72
2021/11/28 21:16:09;;;;;;;0.20;0.10;;;6.50;99.90;;;;;;20758388;28;20274;-71
2021/11/28 21:26:15;;;;;;;0.20;0.10;;;6.40;99.90;;;;;;20755765;28;20218;-72
2021/11/28 21:36:20;;;;;;;0.20;0.10;;;6.50;99.90;;;;;;20754938;28;20363;-72
2021/11/28 21:46:24;;;;;;;0.20;0.10;;;6.30;99.90;;;;;;20744104;28;20240;-72
2021/11/28 21:56:29;;;;;;;0.20;0.10;;;6.20;99.90;;;;;;20744309;28;20734;-70
2021/11/28 22:06:34;;;;;;;0.20;0.10;;;6.20;99.90;;;;;;20741746;28;20260;-71
2021/11/28 22:16:39;;;;;;;0.20;0.10;;;6.20;99.90;;;;;;20743215;28;20357;-72
2021/11/28 22:26:43;;;;;;;0.20;0.10;;;6.10;99.90;;;;;;20743475;28;20314;-73
2021/11/28 22:36:48;;;;;;;0.20;0.10;;;6.00;99.90;;;;;;20743297;28;20656;-72
2021/11/28 22:46:52;;;;;;;0.20;0.10;;;5.80;99.90;;;;;;20743500;28;20701;-72
2021/11/28 22:56:57;;;;;;;0.20;0.10;;;5.80;99.90;;;;;;20740220;28;20195;-69
2021/11/28 23:07:00;;;;;;;0.20;0.10;;;5.40;99.90;;;;;;20742959;28;20231;-71
2021/11/28 23:17:05;;;;;;;0.20;0.10;;;5.40;99.90;;;;;;20742652;28;20194;-71
2021/11/28 23:27:12;;;;;;;0.20;0.10;;;5.70;99.90;;;;;;20740996;28;20222;-71
2021/11/28 23:37:17;;;;;;;0.20;0.10;;;5.90;99.90;;;;;;20739228;28;20199;-70
2021/11/28 23:47:21;;;;;;;0.20;0.20;;;5.90;99.90;;;;;;20738537;28;20219;-72
2021/11/28 23:57:25;;;;;;;0.20;0.10;;;6.20;99.90;;;;;;20736576;28;20210;-70
